Latest Coastal Weather Observations for Croker Island Airport

IDD60701

Issued at 9:31 am CST Friday 29 July 2016 (issued every 10 minutes, with the page automatically refreshed every 10 minutes)

About coastal observations | Map of coastal stations | Coastal observations for NT | Marine services | Other Formats
Station Details ID: 014308 Name: CROKER ISLAND AIRPORT Lat: -11.16 Lon: 132.48 Height: 9.2 m
Data from the previous 72 hours. | See also: Recent months at Croker Island Airport
Date/Time
CST
Temp
°C
Wind Pressure Rain since
9am
mm
Weather Cloud Vis
km
Sea
Height
m
Swell
Dir  Spd
kts
Gust
kts
hPa Trend Height
m
Period
s
Dir
29/09:30am 26.2 ESE 11 18 1013.9 - 0.0 - - - - - - -
29/09:00am 26.4 SE 10 17 1013.8 - 0.0 - - - - - - -
29/08:30am 25.4 ESE 7 11 1013.9 - 0.0 - - - - - - -
29/08:00am 24.2 SE 7 10 1013.4 - 0.0 - - - - - - -
29/07:30am 24.1 ESE 7 11 1013.2 - 0.0 - - - - - - -
29/07:00am 23.0 ESE 6 8 1013.0 - 0.0 - - - - - - -
29/06:30am 23.1 SE 7 10 1012.5 - 0.0 - - - - - - -
29/06:00am 22.7 SE 5 7 1012.5 - 0.0 - - - - - - -
29/05:30am 22.4 SE 5 7 1012.4 - 0.0 - - - - - - -
29/05:00am 22.4 SE 4 5 1012.3 - 0.0 - - - - - - -
29/04:30am 23.0 SE 4 6 1012.3 - 0.0 - - - - - - -
29/04:00am 23.6 SE 4 6 1012.3 - 0.0 - - - - - - -
29/03:30am 24.1 ESE 3 5 1012.5 - 0.0 - - - - - - -
29/03:00am 24.1 SE 4 5 1012.5 - 0.0 - - - - - - -
29/02:30am 24.8 ESE 5 7 1012.9 - 0.0 - - - - - - -
29/02:00am 24.8 SE 5 7 1013.1 - 0.0 - - - - - - -
29/01:30am 24.8 SE 6 9 1013.6 - 0.0 - - - - - - -
29/01:00am 25.2 SE 6 9 1013.7 - 0.0 - - - - - - -
29/12:30am 25.4 ESE 6 12 1013.9 - 0.0 - - - - - - -
29/12:00am 25.1 SE 3 5 1014.1 - 0.0 - - - - - - -
 
Date/Time
CST
Temp
°C
Wind Pressure Rain since
9am
mm
Weather Cloud Vis
km
Sea
Height
m
Swell
Dir  Spd
kts
Gust
kts
hPa Trend Height
m
Period
s
Dir
28/11:30pm 25.1 SE 3 4 1014.2 - 0.0 - - - - - - -
28/11:00pm 25.0 SE 3 4 1014.1 - 0.0 - - - - - - -
28/10:30pm 24.6 SSE 3 3 1014.1 - 0.0 - - - - - - -
28/10:00pm 24.5 SE 2 3 1014.0 - 0.0 - - - - - - -
28/09:30pm 23.8 SSE 3 4 1013.9 - 0.0 - - - - - - -
28/09:00pm 23.4 SE 3 4 1013.7 - 0.0 - - - - - - -
28/08:30pm 24.1 ESE 4 5 1013.2 - 0.0 - - - - - - -
28/08:00pm 24.4 ESE 4 6 1012.8 - 0.0 - - - - - - -
28/07:30pm 24.5 SE 4 6 1012.4 - 0.0 - - - - - - -
28/07:00pm 24.7 SE 4 7 1011.9 - 0.0 - - - - - - -
28/06:30pm 25.8 ENE 7 10 1011.3 - 0.0 - - - - - - -
28/06:00pm 26.9 ENE 7 10 1011.1 - 0.0 - - - - - - -
28/05:30pm 27.7 E 8 12 1011.0 - 0.0 - - - - - - -
28/05:00pm 28.9 ENE 7 11 1010.7 - 0.0 - - - - - - -
28/04:30pm 29.0 ENE 10 13 1010.6 - 0.0 - - - - - - -
28/04:00pm 29.4 E 9 13 1010.6 - 0.0 - - - - - - -
28/03:30pm 30.0 ENE 11 17 1010.9 - 0.0 - - - - - - -
28/03:00pm 30.7 E 11 16 1011.1 - 0.0 - - - - - - -
28/02:30pm 31.0 E 10 15 1011.7 - 0.0 - - - - - - -
28/02:00pm 30.1 ENE 10 16 1011.9 - 0.0 - - - - - - -
28/01:30pm 30.0 ESE 10 15 1012.3 - 0.0 - - - - - - -
28/01:00pm 29.6 ESE 7 13 1012.7 - 0.0 - - - - - - -
28/12:30pm 28.7 SSE 7 11 1013.2 - 0.0 - - - - - - -
28/12:00pm 29.1 SE 8 13 1013.7 - 0.0 - - - - - - -
28/11:30am 28.2 ESE 10 16 1014.3 - 0.0 - - - - - - -
28/11:00am 27.3 ESE 10 19 1014.5 - 0.0 - - - - - - -
28/10:30am 26.7 ESE 11 17 1014.8 - 0.0 - - - - - - -
28/10:00am 26.4 SE 12 20 1015.0 - 0.0 - - - - - - -
28/09:30am 25.7 SE 10 15 1015.4 - 0.0 - - - - - - -
28/09:00am 24.6 SE 8 12 1015.5 - 0.0 - - - - - - -
28/08:30am 24.4 SE 8 14 1015.3 - 0.0 - - - - - - -
28/08:00am 23.1 SE 8 13 1014.8 - 0.0 - - - - - - -
28/07:30am 22.1 SE 7 11 1014.7 - 0.0 - - - - - - -
28/07:00am 21.9 SE 9 14 1014.3 - 0.0 - - - - - - -
28/06:30am 21.7 SE 7 11 1014.1 - 0.0 - - - - - - -
28/06:00am 21.6 SE 6 10 1014.0 - 0.0 - - - - - - -
28/05:30am 21.6 SE 6 9 1013.6 - 0.0 - - - - - - -
28/05:00am 21.8 ESE 6 8 1013.6 - 0.0 - - - - - - -
28/04:30am 22.3 ESE 6 9 1013.5 - 0.0 - - - - - - -
28/04:00am 22.9 ESE 8 10 1013.5 - 0.0 - - - - - - -
28/03:30am 23.3 SE 8 11 1013.6 - 0.0 - - - - - - -
28/03:00am 23.8 ESE 9 15 1013.4 - 0.0 - - - - - - -
28/02:30am 24.3 ESE 10 17 1013.6 - 0.0 - - - - - - -
28/02:00am 24.6 ESE 10 15 1013.8 - 0.0 - - - - - - -
28/01:30am 24.9 ESE 10 17 1013.9 - 0.0 - - - - - - -
28/01:00am 25.4 ESE 10 15 1014.1 - 0.0 - - - - - - -
28/12:30am 25.7 E 11 19 1014.1 - 0.0 - - - - - - -
28/12:00am 25.6 E 10 17 1013.9 - 0.0 - - - - - - -
 
Date/Time
CST
Temp
°C
Wind Pressure Rain since
9am
mm
Weather Cloud Vis
km
Sea
Height
m
Swell
Dir  Spd
kts
Gust
kts
hPa Trend Height
m
Period
s
Dir
27/11:30pm 25.9 E 12 18 1013.8 - 0.0 - - - - - - -
27/11:00pm 25.7 E 10 14 1013.7 - 0.0 - - - - - - -
27/10:30pm 25.5 E 7 12 1013.8 - 0.0 - - - - - - -
27/10:00pm 25.7 E 8 15 1013.7 - 0.0 - - - - - - -
27/09:30pm 25.6 E 8 13 1013.6 - 0.0 - - - - - - -
27/09:00pm 25.4 E 7 10 1013.5 - 0.0 - - - - - - -
27/08:30pm 25.4 E 6 11 1013.3 - 0.0 - - - - - - -
27/08:00pm 25.6 E 7 10 1012.8 - 0.0 - - - - - - -
27/07:30pm 25.6 E 7 10 1012.6 - 0.0 - - - - - - -
27/07:00pm 25.6 ENE 7 10 1012.4 - 0.0 - - - - - - -
27/06:30pm 26.2 ENE 8 13 1011.9 - 0.0 - - - - - - -
27/06:00pm 27.3 ENE 9 16 1011.6 - 0.0 - - - - - - -
27/05:30pm 28.0 E 12 17 1011.5 - 0.0 - - - - - - -
27/05:00pm 29.0 ENE 10 15 1011.3 - 0.0 - - - - - - -
27/04:30pm 29.4 E 12 16 1011.4 - 0.0 - - - - - - -
27/04:00pm 30.3 E 13 22 1011.4 - 0.0 - - - - - - -
27/03:30pm 30.3 E 12 19 1011.5 - 0.0 - - - - - - -
27/03:00pm 30.2 E 14 24 1011.4 - 0.0 - - - - - - -
27/02:30pm 31.1 E 13 20 1011.5 - 0.0 - - - - - - -
27/02:00pm 31.1 ESE 14 20 1011.8 - 0.0 - - - - - - -
27/01:30pm 30.9 ESE 14 21 1012.1 - 0.0 - - - - - - -
27/01:00pm 30.3 E 15 23 1012.6 - 0.0 - - - - - - -
27/12:30pm 30.4 ESE 16 24 1013.1 - 0.0 - - - - - - -
27/12:18pm 30.2 E 16 26 1013.3 - 0.0 - - - - - - -
27/12:00pm 30.2 ESE 16 24 1013.7 - 0.0 - - - - - - -
27/11:30am 29.5 ESE 17 25 1014.0 - 0.0 - - - - - - -
27/11:00am 29.3 ESE 16 24 1014.2 - 0.0 - - - - - - -
27/10:49am 29.5 E 15 25 1014.2 - 0.0 - - - - - - -
27/10:30am 28.7 ESE 13 23 1014.1 - 0.0 - - - - - - -
27/10:00am 28.5 ESE 11 17 1014.2 - 0.0 - - - - - - -
27/09:30am 27.6 SE 11 17 1014.4 - 0.0 - - - - - - -
27/09:00am 26.9 ESE 9 14 1014.4 - 0.0 - - - - - - -
27/08:30am 25.9 ESE 6 10 1014.2 - 0.0 - - - - - - -
27/08:00am 24.5 ESE 5 8 1013.9 - 0.0 - - - - - - -
27/07:30am 23.3 ESE 5 9 1013.6 - 0.0 - - - - - - -
27/07:00am 22.9 ESE 5 7 1013.2 - 0.0 - - - - - - -
27/06:30am 23.4 ESE 7 11 1012.8 - 0.0 - - - - - - -
27/06:00am 23.8 ESE 7 12 1012.6 - 0.0 - - - - - - -
27/05:30am 24.1 E 9 13 1012.5 - 0.0 - - - - - - -
27/05:00am 24.0 ESE 6 8 1012.4 - 0.0 - - - - - - -
27/04:30am 24.2 ESE 6 9 1012.4 - 0.0 - - - - - - -
27/04:00am 24.3 ESE 6 9 1012.4 - 0.0 - - - - - - -
27/03:30am 24.7 ESE 8 13 1012.3 - 0.0 - - - - - - -
27/03:00am 25.3 ESE 10 15 1012.6 - 0.0 - - - - - - -
27/02:30am 25.4 E 10 15 1012.7 - 0.0 - - - - - - -
27/02:00am 25.4 E 9 12 1012.6 - 0.0 - - - - - - -
27/01:30am 25.3 E 9 13 1012.6 - 0.0 - - - - - - -
27/01:00am 24.3 ENE 5 8 1012.7 - 0.0 - - - - - - -
27/12:30am 23.0 E 2 3 1012.9 - 0.0 - - - - - - -
27/12:00am 23.3 E 2 3 1012.7 - 0.0 - - - - - - -
 
Date/Time
CST
Temp
°C
Wind Pressure Rain since
9am
mm
Weather Cloud Vis
km
Sea
Height
m
Swell
Dir  Spd
kts
Gust
kts
hPa Trend Height
m
Period
s
Dir
26/11:30pm 23.4 E 3 5 1012.7 - 0.0 - - - - - - -
26/11:00pm 23.4 E 3 4 1012.8 - 0.0 - - - - - - -
26/10:30pm 23.5 ENE 4 5 1012.7 - 0.0 - - - - - - -
26/10:00pm 22.5 ENE 3 4 1012.7 - 0.0 - - - - - - -
26/09:30pm 22.2 ENE 2 3 1012.5 - 0.0 - - - - - - -
26/09:00pm 22.9 ENE 1 2 1012.3 - 0.0 - - - - - - -
26/08:30pm 24.2 ENE 3 4 1012.1 - 0.0 - - - - - - -
26/08:00pm 24.6 ENE 4 6 1011.8 - 0.0 - - - - - - -
26/07:30pm 25.0 ENE 4 6 1011.5 - 0.0 - - - - - - -
26/07:00pm 25.5 ENE 6 9 1011.1 - 0.0 - - - - - - -
26/06:30pm 26.2 ENE 8 13 1010.7 - 0.0 - - - - - - -
26/06:00pm 27.3 ENE 9 15 1010.6 - 0.0 - - - - - - -
26/05:30pm 28.2 ENE 10 15 1010.4 - 0.0 - - - - - - -
26/05:00pm 28.3 E 11 18 1010.5 - 0.0 - - - - - - -
26/04:30pm 28.6 E 12 19 1010.4 - 0.0 - - - - - - -
26/04:00pm 28.9 ENE 14 21 1010.4 - 0.0 - - - - - - -
26/03:30pm 29.7 E 12 23 1010.5 - 0.0 - - - - - - -
26/03:00pm 29.3 ENE 14 20 1010.7 - 0.0 - - - - - - -
26/02:30pm 29.4 ENE 13 18 1011.2 - 0.0 - - - - - - -
26/02:00pm 29.2 E 13 20 1011.7 - 0.0 - - - - - - -
26/01:30pm 29.5 E 12 19 1012.0 - 0.0 - - - - - - -
26/01:00pm 28.8 E 12 19 1012.3 - 0.0 - - - - - - -
26/12:30pm 28.5 ESE 14 20 1012.6 - 0.0 - - - - - - -
26/12:00pm 28.8 ESE 15 22 1012.9 - 0.0 - - - - - - -
26/11:30am 29.7 ESE 14 19 1013.1 - 0.0 - - - - - - -
26/11:00am 29.9 E 11 18 1013.3 - 0.0 - - - - - - -
26/10:30am 30.0 ESE 10 14 1013.3 - 0.0 - - - - - - -
26/10:00am 29.3 ESE 10 16 1013.5 - 0.0 - - - - - - -

Other Formats:

Comma delimited format used in spreadsheet applications
http://www.bom.gov.au/fwo/IDD60701/IDD60701.94108.axf

JavaScript Object Notation format (JSON) in row-major order
http://www.bom.gov.au/fwo/IDD60701/IDD60701.94108.json